Time;durP1;ratioP1;P1;durP2;ratioP2;P2;SDS_P1;SDS_P2;PMS_P1;PMS_P2;Temp;Humidity;BMP_temperature;BMP_pressure;BME280_temperature;BME280_humidity;BME280_pressure;Samples;Min_cycle;Max_cycle;Signal;HPM_P1;HPM_P2
2022/01/07 00:00:26;;;;;;;2.93;2.30;;;;;;;-4.08;86.17;97240.91;5067608;28;20127;-65
2022/01/07 00:03:13;;;;;;;5.77;1.87;;;;;;;-4.13;86.42;97247.88;5067595;28;20397;-66
2022/01/07 00:05:40;;;;;;;5.33;2.80;;;;;;;-4.15;86.69;97241.09;5067176;28;20044;-65
2022/01/07 00:08:07;;;;;;;10.13;2.60;;;;;;;-4.16;86.92;97254.84;5066743;28;20048;-65
2022/01/07 00:10:34;;;;;;;5.20;2.00;;;;;;;-4.18;87.92;97256.56;5065246;28;20125;-65
2022/01/07 00:13:01;;;;;;;5.40;2.87;;;;;;;-4.18;87.86;97254.88;5066959;28;20036;-65
2022/01/07 00:15:28;;;;;;;5.13;1.73;;;;;;;-4.19;88.17;97266.00;5067026;28;20040;-66
2022/01/07 00:17:56;;;;;;;3.60;1.90;;;;;;;-4.20;88.16;97263.44;5067061;28;20047;-64
2022/01/07 00:20:24;;;;;;;4.20;2.23;;;;;;;-4.21;88.35;97272.91;5068861;28;20509;-66
2022/01/07 00:22:52;;;;;;;3.80;2.00;;;;;;;-4.23;88.69;97268.69;5070846;28;20059;-65
2022/01/07 00:25:21;;;;;;;4.63;2.37;;;;;;;-4.26;89.10;97279.84;5068969;28;20040;-66
2022/01/07 00:27:48;;;;;;;5.10;2.00;;;;;;;-4.26;89.34;97279.84;5068579;28;20126;-65
2022/01/07 00:30:16;;;;;;;6.23;2.63;;;;;;;-4.22;89.33;97280.66;5069511;28;20075;-65
2022/01/07 00:32:44;;;;;;;5.03;2.30;;;;;;;-4.15;89.23;97287.34;5064826;28;20048;-64
2022/01/07 00:35:13;;;;;;;6.73;2.30;;;;;;;-4.08;89.30;97286.34;5068482;28;20094;-65
2022/01/07 00:37:42;;;;;;;6.47;2.60;;;;;;;-4.05;89.06;97278.59;5068913;28;20132;-65
2022/01/07 00:40:12;;;;;;;5.77;2.83;;;;;;;-3.99;89.08;97289.56;5068998;28;20488;-65
2022/01/07 00:42:39;;;;;;;5.40;2.30;;;;;;;-3.97;89.45;97287.81;5069342;28;20114;-65
2022/01/07 00:45:07;;;;;;;3.90;2.47;;;;;;;-3.93;89.97;97302.28;5069124;28;20485;-65
2022/01/07 00:47:34;;;;;;;9.10;2.83;;;;;;;-3.80;90.31;97302.88;5070185;28;20043;-65
2022/01/07 00:50:01;;;;;;;5.10;2.67;;;;;;;-3.86;91.26;97303.03;5070582;28;20040;-65
2022/01/07 00:52:28;;;;;;;7.63;2.53;;;;;;;-3.91;93.64;97294.53;5070557;28;20219;-65
2022/01/07 00:54:57;;;;;;;6.13;3.30;;;;;;;-4.00;95.62;97312.75;5069807;28;20052;-65
2022/01/07 00:57:24;;;;;;;6.07;2.57;;;;;;;-3.99;97.63;97310.16;5069162;28;20120;-65
2022/01/07 00:59:51;;;;;;;9.37;3.07;;;;;;;-4.05;98.26;97330.00;5069426;28;20041;-65
2022/01/07 01:02:18;;;;;;;5.07;2.73;;;;;;;-4.07;99.67;97326.59;5069151;28;20043;-65
2022/01/07 01:04:46;;;;;;;5.63;3.17;;;;;;;-4.10;100.00;97331.78;5069175;28;20051;-66
2022/01/07 01:07:13;;;;;;;7.93;3.03;;;;;;;-4.10;100.00;97337.78;5069043;28;20121;-64
2022/01/07 01:09:40;;;;;;;8.23;2.57;;;;;;;-4.00;100.00;97338.44;5067986;28;20045;-64
2022/01/07 01:12:10;;;;;;;4.10;3.17;;;;;;;-3.96;100.00;97330.66;5069786;28;20413;-65
2022/01/07 01:14:38;;;;;;;7.73;3.30;;;;;;;-3.82;100.00;97328.63;5070545;28;20040;-64
2022/01/07 01:17:05;;;;;;;5.30;3.13;;;;;;;-3.70;100.00;97330.09;5069029;28;20029;-66
2022/01/07 01:19:32;;;;;;;5.00;2.53;;;;;;;-3.61;99.51;97333.31;5068783;28;20076;-64
2022/01/07 01:21:59;;;;;;;6.97;2.97;;;;;;;-3.61;99.36;97340.22;5068415;28;20047;-65
2022/01/07 01:24:26;;;;;;;6.40;3.40;;;;;;;-3.65;98.70;97341.13;5072355;28;20148;-63
2022/01/07 01:26:53;;;;;;;9.53;3.10;;;;;;;-3.63;99.65;97345.38;5072191;28;20036;-63
2022/01/07 01:29:22;;;;;;;6.00;2.90;;;;;;;-3.64;100.00;97341.09;5072466;28;20466;-63
2022/01/07 01:31:50;;;;;;;5.17;2.90;;;;;;;-3.57;100.00;97352.94;5072332;28;20131;-63
2022/01/07 01:34:17;;;;;;;6.80;2.87;;;;;;;-3.44;100.00;97358.66;5071270;28;20047;-63
2022/01/07 01:36:44;;;;;;;7.00;3.00;;;;;;;-3.44;100.00;97366.38;5072175;28;20123;-64
2022/01/07 01:39:12;;;;;;;6.50;3.07;;;;;;;-3.52;100.00;97387.16;5072489;28;20500;-63
2022/01/07 01:41:39;;;;;;;7.13;3.73;;;;;;;-3.62;100.00;97370.22;5072629;28;20052;-63
2022/01/07 01:44:06;;;;;;;5.40;2.43;;;;;;;-3.53;100.00;97372.56;5072189;28;20159;-63
2022/01/07 01:46:35;;;;;;;6.37;3.50;;;;;;;-3.45;100.00;97382.72;5072715;28;20047;-63
2022/01/07 01:49:02;;;;;;;8.83;3.10;;;;;;;-3.47;100.00;97372.47;5072252;28;20036;-64
2022/01/07 01:51:29;;;;;;;5.30;2.50;;;;;;;-3.51;100.00;97382.84;5071873;28;20097;-64
2022/01/07 01:53:56;;;;;;;7.30;3.03;;;;;;;-3.48;100.00;97375.06;5072078;28;20059;-64
2022/01/07 01:56:23;;;;;;;5.23;2.60;;;;;;;-3.53;100.00;97382.88;5071967;28;20045;-64
2022/01/07 01:58:50;;;;;;;4.30;2.63;;;;;;;-3.60;100.00;97386.44;5073651;28;20155;-64
2022/01/07 02:01:17;;;;;;;10.37;3.33;;;;;;;-3.65;100.00;97402.84;5072700;28;20430;-64
2022/01/07 02:03:46;;;;;;;7.00;3.90;;;;;;;-3.64;100.00;97404.56;5071750;28;20145;-64
2022/01/07 02:06:13;;;;;;;3.03;2.40;;;;;;;-3.67;100.00;97397.78;5071624;28;20040;-64
2022/01/07 02:08:40;;;;;;;6.07;3.30;;;;;;;-3.62;100.00;97388.22;5071918;28;20090;-65
2022/01/07 02:11:07;;;;;;;6.87;2.57;;;;;;;-3.67;100.00;97392.63;5071735;28;20040;-64
2022/01/07 02:13:34;;;;;;;8.37;3.60;;;;;;;-3.68;100.00;97405.50;5068326;28;20467;-64
2022/01/07 02:16:02;;;;;;;5.43;3.30;;;;;;;-3.74;100.00;97406.47;5071373;28;20763;-65
2022/01/07 02:18:28;;;;;;;6.40;4.20;;;;;;;-3.80;100.00;97421.16;5071227;28;20029;-64
2022/01/07 02:20:57;;;;;;;5.53;2.67;;;;;;;-3.79;100.00;97417.75;5071675;28;20048;-64
2022/01/07 02:23:24;;;;;;;6.77;3.57;;;;;;;-3.80;100.00;97419.44;5071737;28;20040;-65
2022/01/07 02:25:51;;;;;;;6.03;4.00;;;;;;;-3.73;100.00;97427.88;5072005;28;20075;-64
2022/01/07 02:28:18;;;;;;;5.30;2.63;;;;;;;-3.61;100.00;97435.38;5071314;28;20033;-64
2022/01/07 02:30:45;;;;;;;5.63;3.03;;;;;;;-3.47;100.00;97441.06;5071685;28;20048;-63
2022/01/07 02:33:12;;;;;;;8.23;4.73;;;;;;;-3.40;100.00;97445.22;5070962;28;20131;-65
2022/01/07 02:35:45;;;;;;;6.43;3.50;;;;;;;-3.48;100.00;97441.97;5071181;28;20053;-65
2022/01/07 02:38:14;;;;;;;4.70;2.47;;;;;;;-3.54;100.00;97436.91;5070809;28;20045;-65
2022/01/07 02:40:41;;;;;;;5.43;2.83;;;;;;;-3.55;100.00;97435.25;5071124;28;20119;-64
2022/01/07 02:43:08;;;;;;;10.00;3.10;;;;;;;-3.59;100.00;97441.31;5071137;28;20552;-64
2022/01/07 02:45:35;;;;;;;6.20;2.50;;;;;;;-3.56;100.00;97436.97;5069529;28;20409;-64
2022/01/07 02:48:03;;;;;;;5.90;3.17;;;;;;;-3.57;100.00;97445.56;5071364;28;20040;-64
2022/01/07 02:50:33;;;;;;;4.93;2.30;;;;;;;-3.51;100.00;97453.16;5070826;28;20036;-64
2022/01/07 02:53:01;;;;;;;4.93;3.17;;;;;;;-3.43;100.00;97463.28;5072307;28;20058;-63
2022/01/07 02:55:29;;;;;;;5.20;3.03;;;;;;;-3.44;100.00;97466.75;5071862;28;20067;-65
2022/01/07 02:57:57;;;;;;;8.13;3.10;;;;;;;-3.36;100.00;97473.44;5070921;28;20036;-64
2022/01/07 03:00:25;;;;;;;7.90;3.60;;;;;;;-3.26;100.00;97472.38;5070796;28;20045;-64
2022/01/07 03:02:54;;;;;;;8.87;3.10;;;;;;;-3.28;100.00;97475.84;5071817;28;20075;-64
2022/01/07 03:05:21;;;;;;;4.57;3.23;;;;;;;-3.25;100.00;97470.63;5071244;28;20043;-64
2022/01/07 03:07:49;;;;;;;6.47;3.03;;;;;;;-3.31;100.00;97483.66;5071322;28;20044;-64
2022/01/07 03:10:17;;;;;;;6.17;2.90;;;;;;;-3.28;100.00;97487.00;5071421;28;20036;-64
2022/01/07 03:12:46;;;;;;;5.93;2.83;;;;;;;-3.27;100.00;97480.94;5070394;28;20048;-64
2022/01/07 03:15:14;;;;;;;7.37;2.57;;;;;;;-3.29;100.00;97485.31;5070149;28;20048;-64
2022/01/07 03:17:41;;;;;;;4.30;2.90;;;;;;;-3.33;100.00;97481.09;5070205;28;20043;-64
2022/01/07 03:20:11;;;;;;;4.73;3.07;;;;;;;-3.31;100.00;97492.19;5069735;28;20389;-64
2022/01/07 03:22:38;;;;;;;5.40;3.73;;;;;;;-3.33;100.00;97493.97;5070145;28;20044;-64
2022/01/07 03:25:06;;;;;;;9.00;3.17;;;;;;;-3.38;100.00;97494.94;5070440;28;20553;-64
2022/01/07 03:27:33;;;;;;;6.60;3.43;;;;;;;-3.40;100.00;97476.09;5067762;28;20036;-64
2022/01/07 03:30:02;;;;;;;7.90;3.80;;;;;;;-3.39;100.00;97488.06;5052147;28;20123;-64
2022/01/07 03:32:29;;;;;;;7.77;3.43;;;;;;;-3.41;100.00;97507.88;5070048;28;20045;-64
2022/01/07 03:34:56;;;;;;;4.80;3.23;;;;;;;-3.39;100.00;97499.22;5069313;28;20068;-64
2022/01/07 03:37:23;;;;;;;5.77;2.80;;;;;;;-3.39;100.00;97513.81;5064344;28;20040;-64
2022/01/07 03:39:50;;;;;;;6.87;2.90;;;;;;;-3.37;100.00;97506.91;5067552;28;20054;-64
2022/01/07 03:42:17;;;;;;;5.37;3.50;;;;;;;-3.37;100.00;97509.50;5068312;28;20054;-64
2022/01/07 03:44:44;;;;;;;6.53;2.97;;;;;;;-3.41;100.00;97515.59;5068606;28;20048;-66
2022/01/07 03:47:13;;;;;;;5.37;3.40;;;;;;;-3.42;100.00;97521.63;5069208;28;20040;-64
2022/01/07 03:49:40;;;;;;;3.93;2.70;;;;;;;-3.43;100.00;97523.31;5068606;28;20523;-64
2022/01/07 03:52:07;;;;;;;7.33;2.57;;;;;;;-3.43;100.00;97530.19;5067102;28;20049;-64
2022/01/07 03:54:34;;;;;;;3.70;2.70;;;;;;;-3.43;100.00;97532.75;5068512;28;20135;-64
2022/01/07 03:57:01;;;;;;;7.13;2.80;;;;;;;-3.44;99.92;97547.38;5068191;28;20153;-64
2022/01/07 03:59:30;;;;;;;9.20;3.70;;;;;;;-3.42;100.00;97543.03;5068630;28;20479;-64
2022/01/07 04:01:56;;;;;;;5.30;2.97;;;;;;;-3.44;99.12;97549.94;5067004;28;20044;-64
2022/01/07 04:04:25;;;;;;;5.93;2.90;;;;;;;-3.43;99.33;97550.78;5068684;28;20047;-63
2022/01/07 04:06:52;;;;;;;6.50;2.87;;;;;;;-3.45;98.78;97566.25;5068489;28;20071;-64
2022/01/07 04:09:19;;;;;;;7.97;3.27;;;;;;;-3.42;98.80;97565.34;5068449;28;20123;-63
2022/01/07 04:11:46;;;;;;;9.23;4.03;;;;;;;-3.41;98.24;97556.75;5068044;28;20572;-64
2022/01/07 04:14:13;;;;;;;4.90;2.83;;;;;;;-3.36;98.46;97554.94;5067486;28;20132;-64
2022/01/07 04:16:40;;;;;;;5.00;2.70;;;;;;;-3.34;97.97;97563.47;5068324;28;20044;-64
2022/01/07 04:19:07;;;;;;;6.47;3.50;;;;;;;-3.35;97.11;97562.63;5067893;28;20044;-64
2022/01/07 04:21:36;;;;;;;5.60;2.87;;;;;;;-3.35;96.29;97562.63;5068267;28;20127;-64
2022/01/07 04:24:03;;;;;;;5.30;2.53;;;;;;;-3.30;96.20;97572.84;5066884;28;20524;-64
2022/01/07 04:26:30;;;;;;;7.17;3.57;;;;;;;-3.36;94.88;97576.38;5068323;28;20752;-64
2022/01/07 04:28:57;;;;;;;6.10;3.07;;;;;;;-3.36;94.26;97578.09;5069594;28;20041;-62
2022/01/07 04:31:24;;;;;;;6.40;3.67;;;;;;;-3.31;93.37;97578.88;5069000;28;20044;-62
2022/01/07 04:33:51;;;;;;;5.53;2.90;;;;;;;-3.34;92.67;97584.91;5070089;28;20855;-63
2022/01/07 04:36:18;;;;;;;3.50;2.53;;;;;;;-3.32;92.24;97592.59;5066521;28;20049;-62
2022/01/07 04:38:47;;;;;;;4.43;2.93;;;;;;;-3.34;92.31;97589.22;5067703;28;20059;-62
2022/01/07 04:41:15;;;;;;;6.33;3.37;;;;;;;-3.33;91.67;97602.06;5067543;28;20043;-62
2022/01/07 04:43:42;;;;;;;5.90;3.00;;;;;;;-3.35;91.41;97598.66;5067964;28;20131;-62
2022/01/07 04:46:09;;;;;;;5.87;3.13;;;;;;;-3.35;91.39;97600.41;5068523;28;20489;-62
2022/01/07 04:48:36;;;;;;;6.47;3.23;;;;;;;-3.38;91.22;97600.44;5069608;28;20037;-62
2022/01/07 04:51:03;;;;;;;5.10;2.60;;;;;;;-3.34;91.51;97608.06;5067487;28;20409;-63
2022/01/07 04:53:30;;;;;;;7.03;3.00;;;;;;;-3.27;91.31;97609.66;5068610;28;20037;-63
2022/01/07 04:55:59;;;;;;;3.77;2.90;;;;;;;-3.34;91.19;97609.81;5068511;28;20041;-63
2022/01/07 04:58:27;;;;;;;5.50;3.23;;;;;;;-3.27;90.91;97613.97;5070553;28;20050;-63
2022/01/07 05:00:54;;;;;;;4.30;2.93;;;;;;;-3.33;89.95;97616.66;5071478;28;20040;-63
2022/01/07 05:03:21;;;;;;;5.80;2.70;;;;;;;-3.31;90.04;97614.91;5072308;28;20048;-63
2022/01/07 05:05:56;;;;;;;4.33;2.43;;;;;;;-3.28;89.00;97625.97;5072410;28;20040;-63
2022/01/07 05:08:23;;;;;;;6.63;3.00;;;;;;;-3.25;88.88;97625.06;5069314;28;20037;-64
2022/01/07 05:10:50;;;;;;;3.93;2.67;;;;;;;-3.28;88.45;97615.69;5071289;28;20063;-62
2022/01/07 05:13:19;;;;;;;5.93;3.07;;;;;;;-3.28;88.01;97628.56;5071375;28;20493;-63
2022/01/07 05:15:46;;;;;;;6.83;2.67;;;;;;;-3.27;87.15;97630.25;5070841;28;20040;-63
2022/01/07 05:18:13;;;;;;;3.60;2.30;;;;;;;-3.23;86.72;97639.59;5072185;28;20036;-62
2022/01/07 05:20:40;;;;;;;6.33;2.43;;;;;;;-3.30;86.21;97644.91;5070157;28;20049;-63
2022/01/07 05:23:07;;;;;;;7.63;2.77;;;;;;;-3.31;86.88;97646.63;5070845;28;20047;-63
2022/01/07 05:25:35;;;;;;;5.30;2.60;;;;;;;-3.24;86.64;97645.63;5071996;28;20052;-64
2022/01/07 05:28:02;;;;;;;3.37;2.10;;;;;;;-3.31;85.69;97645.78;5070852;28;20045;-63
2022/01/07 05:30:30;;;;;;;3.73;2.47;;;;;;;-3.31;85.98;97658.66;5070531;28;20047;-63
2022/01/07 05:32:57;;;;;;;4.87;2.50;;;;;;;-3.28;85.97;97661.16;5071778;28;20105;-63
2022/01/07 05:35:25;;;;;;;4.47;2.40;;;;;;;-3.29;85.81;97667.19;5070386;28;20051;-63
2022/01/07 05:37:53;;;;;;;5.00;3.10;;;;;;;-3.27;85.26;97668.03;5070248;28;21591;-62
2022/01/07 05:40:20;;;;;;;5.90;3.10;;;;;;;-3.32;84.90;97673.25;5070521;28;20047;-63
2022/01/07 05:42:47;;;;;;;2.10;1.87;;;;;;;-3.39;85.19;97681.94;5070090;28;20041;-63
2022/01/07 05:45:14;;;;;;;6.00;3.40;;;;;;;-3.35;84.68;97678.44;5070715;28;20045;-62
2022/01/07 05:47:43;;;;;;;4.67;2.10;;;;;;;-3.37;85.02;97682.78;5070069;28;20135;-63
2022/01/07 05:50:10;;;;;;;3.03;2.30;;;;;;;-3.41;84.31;97691.44;5072060;28;20533;-62
2022/01/07 05:52:37;;;;;;;3.73;2.23;;;;;;;-3.38;84.60;97699.06;5071972;28;20044;-63
2022/01/07 05:55:05;;;;;;;4.00;2.20;;;;;;;-3.40;83.90;97693.13;5072719;28;20048;-63
2022/01/07 05:57:32;;;;;;;3.33;2.23;;;;;;;-3.43;83.99;97697.44;5073625;28;20045;-63
2022/01/07 05:59:59;;;;;;;4.40;2.20;;;;;;;-3.40;83.93;97697.41;5071926;28;20486;-63
2022/01/07 06:02:26;;;;;;;5.67;2.40;;;;;;;-3.43;83.89;97700.03;5072044;28;20382;-62
2022/01/07 06:04:55;;;;;;;4.57;2.17;;;;;;;-3.43;82.78;97703.47;5071624;28;20078;-63
2022/01/07 06:07:22;;;;;;;4.03;2.40;;;;;;;-3.44;83.04;97711.22;5071789;28;20772;-63
2022/01/07 06:09:49;;;;;;;6.10;3.30;;;;;;;-3.44;83.39;97698.34;5071058;28;20040;-62
2022/01/07 06:12:16;;;;;;;3.17;2.30;;;;;;;-3.41;83.28;97721.44;5071849;28;20041;-63
2022/01/07 06:14:43;;;;;;;11.33;4.03;;;;;;;-3.36;83.43;97719.66;5069136;28;20473;-63
2022/01/07 06:17:11;;;;;;;2.90;2.40;;;;;;;-3.38;83.07;97726.56;5071158;28;20045;-63
2022/01/07 06:19:38;;;;;;;3.20;2.27;;;;;;;-3.40;81.83;97730.88;5072510;28;20060;-62
2022/01/07 06:22:07;;;;;;;4.73;2.43;;;;;;;-3.43;82.15;97733.47;5071444;28;20037;-62
2022/01/07 06:24:34;;;;;;;3.63;2.10;;;;;;;-3.44;81.86;97731.78;5071490;28;20052;-62
2022/01/07 06:27:01;;;;;;;2.77;1.90;;;;;;;-3.45;81.90;97722.38;5070159;28;20046;-62
2022/01/07 06:29:28;;;;;;;2.40;1.83;;;;;;;-3.42;81.50;97733.47;5070806;28;20036;-62
2022/01/07 06:31:55;;;;;;;5.33;2.47;;;;;;;-3.40;81.49;97739.44;5071198;28;20045;-64
2022/01/07 06:34:23;;;;;;;3.17;2.40;;;;;;;-3.39;81.17;97746.28;5071811;28;20044;-65
2022/01/07 06:36:50;;;;;;;5.03;2.50;;;;;;;-3.34;81.25;97744.47;5072014;28;20045;-63
2022/01/07 06:39:20;;;;;;;4.57;2.10;;;;;;;-3.32;81.51;97747.88;5071090;28;20075;-62
2022/01/07 06:41:47;;;;;;;5.27;3.37;;;;;;;-3.27;81.00;97760.69;5070390;28;20489;-63
2022/01/07 06:44:14;;;;;;;6.97;2.70;;;;;;;-3.25;80.60;97728.03;5069544;28;20070;-63
2022/01/07 06:46:41;;;;;;;4.23;2.07;;;;;;;-3.35;80.95;97757.41;5071204;28;20045;-63
2022/01/07 06:49:09;;;;;;;4.03;2.43;;;;;;;-3.31;80.42;97762.44;5069474;28;20043;-63
2022/01/07 06:51:35;;;;;;;4.17;1.93;;;;;;;-3.22;80.69;97772.63;5070772;28;20052;-63
2022/01/07 06:54:03;;;;;;;6.00;2.37;;;;;;;-3.20;80.77;97767.44;5070935;28;20491;-64
2022/01/07 06:56:31;;;;;;;2.93;1.73;;;;;;;-3.24;80.77;97776.09;5070942;28;20087;-64
2022/01/07 06:58:58;;;;;;;3.87;2.00;;;;;;;-3.23;80.58;97775.22;5071094;28;20048;-63
2022/01/07 07:01:27;;;;;;;3.23;1.97;;;;;;;-3.19;80.62;97774.28;5071135;28;20048;-63
2022/01/07 07:03:54;;;;;;;3.17;2.20;;;;;;;-3.17;80.01;97780.25;5069672;28;20052;-63
2022/01/07 07:06:21;;;;;;;3.13;2.60;;;;;;;-3.17;79.58;97790.53;5070297;28;20508;-64
2022/01/07 07:08:48;;;;;;;6.93;2.67;;;;;;;-3.15;78.58;97792.25;5070502;28;20520;-63
2022/01/07 07:11:15;;;;;;;5.97;2.90;;;;;;;-3.15;78.18;97797.38;5070516;28;20052;-62
2022/01/07 07:13:43;;;;;;;5.60;2.57;;;;;;;-3.27;76.64;97804.44;5070176;28;20446;-63
2022/01/07 07:16:10;;;;;;;5.90;2.70;;;;;;;-3.49;76.65;97805.66;5070271;28;20529;-62
2022/01/07 07:18:37;;;;;;;3.73;2.60;;;;;;;-3.46;76.92;97811.59;5069473;28;20028;-62
2022/01/07 07:21:05;;;;;;;3.83;2.27;;;;;;;-3.21;76.09;97818.06;5069526;28;20066;-64
2022/01/07 07:23:32;;;;;;;2.93;1.67;;;;;;;-3.08;75.23;97813.59;5070359;28;20409;-62
2022/01/07 07:25:59;;;;;;;1.93;1.40;;;;;;;-3.09;74.60;97824.75;5069970;28;20497;-63
2022/01/07 07:28:26;;;;;;;4.40;1.77;;;;;;;-3.14;74.28;97821.38;5069955;28;20071;-62
2022/01/07 07:30:56;;;;;;;3.17;1.93;;;;;;;-2.98;73.91;97825.44;5070034;28;20123;-63
2022/01/07 07:33:54;;;;;;;2.73;1.77;;;;;;;-2.84;73.56;97821.75;5069812;28;20049;-63
2022/01/07 07:36:30;;;;;;;1.60;1.47;;;;;;;-2.93;73.33;97824.50;5069999;28;20359;-63
2022/01/07 07:38:58;;;;;;;3.13;1.73;;;;;;;-2.90;73.49;97827.00;5069891;28;20446;-63
2022/01/07 07:41:26;;;;;;;4.10;2.50;;;;;;;-2.79;73.40;97827.66;5069516;28;20041;-63
2022/01/07 07:43:53;;;;;;;3.27;1.63;;;;;;;-2.69;73.08;97830.94;5070031;28;20055;-63
2022/01/07 07:46:21;;;;;;;3.67;1.90;;;;;;;-2.44;72.94;97829.63;5069161;28;20123;-64
2022/01/07 07:48:51;;;;;;;3.83;2.00;;;;;;;-2.08;72.59;97817.75;5071421;28;20052;-67
2022/01/07 07:51:19;;;;;;;3.60;2.20;;;;;;;-1.64;71.78;97817.69;5071332;28;20048;-67
2022/01/07 07:53:47;;;;;;;4.60;1.77;;;;;;;-1.38;71.13;97824.00;5071126;28;20044;-67
2022/01/07 07:56:16;;;;;;;4.93;2.00;;;;;;;-1.55;70.42;97820.91;5072068;28;20064;-71
2022/01/07 07:58:44;;;;;;;3.53;1.77;;;;;;;-1.64;71.31;97821.13;5070294;28;20033;-68
2022/01/07 08:01:12;;;;;;;3.83;1.80;;;;;;;-1.57;71.17;97821.84;5071203;28;20470;-70
2022/01/07 08:03:40;;;;;;;4.80;1.80;;;;;;;-1.54;71.23;97822.63;5070190;28;20068;-72
2022/01/07 08:06:08;;;;;;;2.80;1.53;;;;;;;-1.39;71.22;97824.88;5098897;28;20041;-67
2022/01/07 08:08:36;;;;;;;4.33;1.80;;;;;;;-1.23;71.33;97825.34;5070199;28;20071;-68
2022/01/07 08:11:06;;;;;;;4.10;2.13;;;;;;;-1.19;71.17;97829.59;5070398;28;20032;-70
2022/01/07 08:15:58;;;;;;;4.10;1.80;;;;;;;-0.72;70.41;97824.97;5066915;28;20052;-67
2022/01/07 08:16:23;;;;;;;8.00;1.70;;;;;;;-0.64;70.39;97828.22;5069516;28;20036;-69
2022/01/07 08:18:54;;;;;;;3.60;2.10;;;;;;;-1.29;70.86;97828.09;5074251;28;20069;-75
2022/01/07 08:21:24;;;;;;;4.60;2.40;;;;;;;-1.84;72.87;97837.91;5071082;28;20090;-74
2022/01/07 08:23:53;;;;;;;7.30;2.70;;;;;;;-1.92;73.88;97848.38;5072223;28;20045;-75
2022/01/07 08:26:20;;;;;;;6.03;2.00;;;;;;;-1.78;74.39;97843.78;5070567;28;20040;-77
2022/01/07 08:28:51;;;;;;;7.27;2.27;;;;;;;-1.22;74.14;97840.81;5071481;28;20135;-73
2022/01/07 08:36:52;;;;;;;5.33;2.10;;;;;;;-1.46;74.21;97838.81;5068979;28;20051;-74
2022/01/07 08:39:19;;;;;;;4.27;2.20;;;;;;;-1.50;74.66;97829.44;5069326;28;20071;-73
2022/01/07 08:41:46;;;;;;;4.20;1.83;;;;;;;-1.39;74.71;97824.88;5061645;28;20132;-71
2022/01/07 08:44:13;;;;;;;2.63;1.57;;;;;;;-1.53;74.85;97831.22;5070103;28;20615;-74
2022/01/07 08:46:42;;;;;;;6.27;2.27;;;;;;;-1.56;75.23;97837.28;5071026;28;20044;-75
2022/01/07 08:49:11;;;;;;;5.73;2.60;;;;;;;-1.41;75.10;97838.72;5071783;28;20033;-77
2022/01/07 08:51:38;;;;;;;4.50;2.40;;;;;;;-1.18;74.76;97839.88;5072981;28;20518;-74
2022/01/07 08:54:05;;;;;;;6.03;2.40;;;;;;;-0.94;73.50;97831.56;5072938;28;20037;-76
2022/01/07 08:56:34;;;;;;;4.20;2.03;;;;;;;-0.86;73.24;97836.56;5067942;28;20048;-74
2022/01/07 08:59:01;;;;;;;5.80;2.20;;;;;;;-1.17;71.44;97833.84;5068568;28;20136;-74
2022/01/07 09:01:28;;;;;;;4.73;1.70;;;;;;;-1.33;71.38;97841.97;5051149;28;20044;-74
2022/01/07 09:03:56;;;;;;;8.70;3.00;;;;;;;-1.22;71.85;97833.06;5069598;28;20127;-73
2022/01/07 09:06:24;;;;;;;2.87;1.50;;;;;;;-1.23;71.14;97828.81;5069016;28;20041;-76
2022/01/07 09:08:51;;;;;;;3.97;1.30;;;;;;;-1.22;71.44;97829.66;5070046;28;20099;-78
2022/01/07 09:11:18;;;;;;;4.60;1.70;;;;;;;-0.97;71.38;97830.78;5068644;28;20484;-76
2022/01/07 09:13:48;;;;;;;4.27;1.87;;;;;;;-0.87;70.50;97834.84;5066789;28;20075;-73
2022/01/07 09:16:15;;;;;;;2.63;1.93;;;;;;;-0.94;70.17;97823.81;5068705;28;20094;-76
2022/01/07 09:18:42;;;;;;;7.20;1.67;;;;;;;-1.12;70.29;97829.41;5067624;28;21445;-73
2022/01/07 09:21:10;;;;;;;4.73;2.83;;;;;;;-0.96;70.70;97837.66;5067970;28;20120;-71
2022/01/07 09:23:40;;;;;;;4.93;1.80;;;;;;;-0.62;70.36;97839.38;5073196;28;20401;-73
2022/01/07 09:26:07;;;;;;;3.50;2.43;;;;;;;-0.77;68.99;97834.59;5069063;28;20051;-72
2022/01/07 09:28:34;;;;;;;2.97;1.73;;;;;;;-1.06;69.38;97838.75;5071538;28;20131;-72
2022/01/07 09:31:01;;;;;;;3.97;1.87;;;;;;;-0.90;69.22;97835.75;5069537;28;20041;-72
2022/01/07 09:33:28;;;;;;;7.70;2.73;;;;;;;-0.49;67.88;97845.09;5067911;28;20135;-72
2022/01/07 09:35:55;;;;;;;3.33;1.97;;;;;;;-0.15;67.08;97836.38;5069789;28;20049;-72
2022/01/07 09:38:22;;;;;;;2.80;1.87;;;;;;;-0.07;66.30;97838.78;5071786;28;20090;-72
2022/01/07 09:40:52;;;;;;;7.37;2.90;;;;;;;0.14;66.26;97833.84;5071599;28;20041;-71
2022/01/07 09:43:19;;;;;;;5.03;2.27;;;;;;;-0.07;65.09;97834.47;5068160;28;20490;-72
2022/01/07 09:45:46;;;;;;;2.30;1.67;;;;;;;-0.26;64.71;97838.41;5075862;28;20063;-73
2022/01/07 09:48:13;;;;;;;5.77;2.07;;;;;;;-0.14;64.95;97838.09;5074370;28;20044;-74
2022/01/07 09:50:40;;;;;;;5.93;2.07;;;;;;;-0.31;64.35;97835.09;5072883;28;20116;-67
2022/01/07 09:53:09;;;;;;;3.80;1.47;;;;;;;-0.63;64.65;97835.06;5071620;28;20040;-67
2022/01/07 09:55:36;;;;;;;3.87;1.70;;;;;;;-0.47;65.00;97840.72;5074003;28;20511;-71
2022/01/07 09:58:05;;;;;;;8.40;1.97;;;;;;;-0.63;64.54;97840.25;5073432;28;20068;-72
2022/01/07 10:00:34;;;;;;;6.60;1.90;;;;;;;-0.54;65.43;97836.59;5072159;28;20047;-73
2022/01/07 10:03:03;;;;;;;4.30;1.93;;;;;;;-0.38;65.46;97841.31;5073596;28;20076;-73
2022/01/07 10:05:31;;;;;;;4.60;1.83;;;;;;;-0.29;65.15;97838.50;5074823;28;20469;-72
2022/01/07 10:08:19;;;;;;;6.13;1.63;;;;;;;-0.04;64.90;97834.34;5072965;28;20055;-72
2022/01/07 10:10:46;;;;;;;2.60;1.20;;;;;;;0.01;64.19;97829.06;5070801;28;20037;-72
2022/01/07 10:13:19;;;;;;;3.23;1.53;;;;;;;-0.12;63.82;97828.53;5073350;28;20041;-72
2022/01/07 10:15:47;;;;;;;4.88;1.95;;;;;;;-0.31;63.61;97829.94;5073635;28;20114;-71
2022/01/07 10:18:16;;;;;;;3.43;1.43;;;;;;;-0.56;63.36;97822.84;5074455;28;20071;-71
2022/01/07 10:20:45;;;;;;;4.20;1.30;;;;;;;-0.77;63.19;97824.25;5073081;28;20144;-72
2022/01/07 10:23:14;;;;;;;3.20;1.20;;;;;;;-0.80;63.17;97826.91;5071338;28;20580;-72
2022/01/07 10:25:43;;;;;;;2.80;0.77;;;;;;;-0.83;62.20;97829.56;5070768;28;20424;-72
2022/01/07 10:28:12;;;;;;;8.13;1.50;;;;;;;-0.84;62.06;97832.19;5070537;28;20048;-72
2022/01/07 10:30:42;;;;;;;2.77;1.53;;;;;;;-0.97;62.09;97834.22;5071773;28;20098;-71
2022/01/07 10:33:21;;;;;;;2.50;1.40;;;;;;;-0.97;63.25;97823.03;5075764;28;20127;-72
2022/01/07 10:35:49;;;;;;;8.07;1.43;;;;;;;-1.03;64.67;97826.63;5075502;28;20277;-73
2022/01/07 10:38:19;;;;;;;3.57;2.20;;;;;;;-0.51;66.89;97831.34;5071927;28;20040;-71
2022/01/07 10:40:48;;;;;;;2.10;1.40;;;;;;;-0.70;64.76;97833.56;5074925;28;20041;-72
2022/01/07 10:43:18;;;;;;;4.37;1.30;;;;;;;-0.63;65.11;97835.06;5074946;28;20087;-72
2022/01/07 10:45:49;;;;;;;3.97;1.40;;;;;;;-0.93;64.95;97828.06;5073571;28;20074;-72
2022/01/07 10:48:17;;;;;;;1.83;1.27;;;;;;;-0.88;64.53;97821.09;5073342;28;20060;-72
2022/01/07 10:50:46;;;;;;;4.83;1.40;;;;;;;-0.67;66.43;97837.78;5073468;28;20044;-73
2022/01/07 10:53:19;;;;;;;5.67;1.87;;;;;;;-0.49;65.41;97830.41;5072690;28;20059;-73
2022/01/07 10:56:06;;;;;;;3.88;2.05;;;;;;;-0.57;66.95;97816.81;5067764;28;20060;-73
2022/01/07 10:59:01;;;;;;;2.20;1.33;;;;;;;-0.55;65.92;97825.41;5071418;28;20736;-74
2022/01/07 11:01:41;;;;;;;3.07;1.40;;;;;;;-0.83;65.49;97828.69;5065959;28;20523;-77
2022/01/07 11:04:10;;;;;;;2.27;1.10;;;;;;;-0.74;65.88;97823.31;5070837;28;20044;-73
2022/01/07 11:06:39;;;;;;;7.27;1.50;;;;;;;-0.68;66.26;97828.31;5072604;28;20161;-72
2022/01/07 11:09:09;;;;;;;3.77;1.53;;;;;;;-0.57;65.58;97834.94;5070461;28;20477;-71
2022/01/07 11:11:45;;;;;;;2.37;1.60;;;;;;;-0.66;64.72;97834.31;5070497;28;20047;-74
2022/01/07 11:14:17;;;;;;;2.53;1.20;;;;;;;-0.82;65.44;97841.59;5070345;28;20044;-76
2022/01/07 11:16:46;;;;;;;2.73;1.37;;;;;;;-0.88;65.87;97833.16;5070779;28;20037;-74
2022/01/07 11:19:19;;;;;;;3.13;1.30;;;;;;;-0.82;65.96;97835.59;5069567;28;20055;-73
2022/01/07 11:21:51;;;;;;;5.30;1.38;;;;;;;-0.84;65.51;97848.53;5070640;28;20086;-72
2022/01/07 11:24:39;;;;;;;2.80;1.20;;;;;;;-0.93;64.41;97843.59;5070554;28;20492;-71
2022/01/07 11:27:10;;;;;;;3.43;1.00;;;;;;;-0.94;63.84;97833.28;5066814;28;20304;-72
2022/01/07 11:29:38;;;;;;;5.80;0.93;;;;;;;-0.91;63.11;97836.66;5070030;28;20041;-72
2022/01/07 11:32:36;;;;;;;4.37;1.33;;;;;;;-0.87;62.88;97833.09;5070429;28;20041;-72
2022/01/07 11:35:46;;;;;;;4.03;1.30;;;;;;;-0.96;63.57;97827.31;5064181;28;20102;-72
2022/01/07 11:38:42;;;;;;;3.73;0.97;;;;;;;-1.16;64.05;97814.00;5051442;28;20052;-71
2022/01/07 11:41:43;;;;;;;2.70;1.10;;;;;;;-1.05;63.98;97822.34;5064334;28;20045;-71
2022/01/07 11:44:13;;;;;;;6.47;1.83;;;;;;;-1.06;64.31;97815.50;5069166;28;20056;-73